Agra, India
Current Conditions -  °F | °C
As of 12:30 AM on Sunday 26 Oct 2014 (Local Time) from VIDP Reporting Station
Smoke Smoke  
Wind Chill: 73°   Ceiling: Unl
Heat Index: 73°   Visibility: 0.93mi
Dew Point: 61°   Wind: 6mph
Humidity: 65%   Direction: 100°E
Pressure: 29.94"   Gusts: NA
Location:  27.18°N, 78.01°E
Report Text: VIDP 251930Z 10005KT 1500 R28/29/P2000 FU NSC 23/16 Q1014 NOSIG
Loading
Personal Weather Stations






























Interactive Weather Map
Tropical Storm Tracking
New forecast layout! Learn more

10-Day Weather Forecast

Advertisements
Track Severe Weather on mobile